sensor_id;sensor_type;location;lat;lon;timestamp;temperature;humidity
43884;DHT22;29544;52.018;5.810;2022-09-12T00:02:21;21.80;64.10
43884;DHT22;29544;52.018;5.810;2022-09-12T00:04:47;21.80;64.10
43884;DHT22;29544;52.018;5.810;2022-09-12T00:07:12;21.80;64.10
43884;DHT22;29544;52.018;5.810;2022-09-12T00:09:38;21.70;64.10
43884;DHT22;29544;52.018;5.810;2022-09-12T00:12:04;21.80;64.10
43884;DHT22;29544;52.018;5.810;2022-09-12T00:14:30;21.70;64.10
43884;DHT22;29544;52.018;5.810;2022-09-12T00:16:59;21.70;64.00
43884;DHT22;29544;52.018;5.810;2022-09-12T00:19:28;21.70;64.10
43884;DHT22;29544;52.018;5.810;2022-09-12T00:21:54;21.70;64.10
43884;DHT22;29544;52.018;5.810;2022-09-12T00:24:20;21.70;64.00
43884;DHT22;29544;52.018;5.810;2022-09-12T00:26:46;21.60;64.00
43884;DHT22;29544;52.018;5.810;2022-09-12T00:29:17;21.60;64.00
43884;DHT22;29544;52.018;5.810;2022-09-12T00:31:43;21.60;64.00
43884;DHT22;29544;52.018;5.810;2022-09-12T00:34:09;21.60;64.00
43884;DHT22;29544;52.018;5.810;2022-09-12T00:36:34;21.60;64.00
43884;DHT22;29544;52.018;5.810;2022-09-12T00:39:02;21.60;63.90
43884;DHT22;29544;52.018;5.810;2022-09-12T00:41:38;21.60;63.90
43884;DHT22;29544;52.018;5.810;2022-09-12T00:47:27;21.50;63.90
43884;DHT22;29544;52.018;5.810;2022-09-12T00:50:12;21.50;63.90
43884;DHT22;29544;52.018;5.810;2022-09-12T00:52:46;21.50;63.80
43884;DHT22;29544;52.018;5.810;2022-09-12T00:55:20;21.50;63.90
43884;DHT22;29544;52.018;5.810;2022-09-12T00:58:01;21.50;63.90
43884;DHT22;29544;52.018;5.810;2022-09-12T01:00:28;21.50;63.80
43884;DHT22;29544;52.018;5.810;2022-09-12T01:02:57;21.50;63.80
43884;DHT22;29544;52.018;5.810;2022-09-12T01:05:27;21.50;63.80
43884;DHT22;29544;52.018;5.810;2022-09-12T01:07:55;21.50;63.90
43884;DHT22;29544;52.018;5.810;2022-09-12T01:10:21;21.50;63.80
43884;DHT22;29544;52.018;5.810;2022-09-12T01:12:48;21.40;63.70
43884;DHT22;29544;52.018;5.810;2022-09-12T01:15:14;21.40;63.80
43884;DHT22;29544;52.018;5.810;2022-09-12T01:17:57;21.40;63.70
43884;DHT22;29544;52.018;5.810;2022-09-12T01:23:31;21.40;63.70
43884;DHT22;29544;52.018;5.810;2022-09-12T01:26:16;21.40;63.70
43884;DHT22;29544;52.018;5.810;2022-09-12T01:31:40;21.30;63.60
43884;DHT22;29544;52.018;5.810;2022-09-12T01:34:26;21.30;63.60
43884;DHT22;29544;52.018;5.810;2022-09-12T01:36:59;21.30;63.60
43884;DHT22;29544;52.018;5.810;2022-09-12T01:39:37;21.40;63.60
43884;DHT22;29544;52.018;5.810;2022-09-12T01:45:13;21.30;63.50
43884;DHT22;29544;52.018;5.810;2022-09-12T01:47:55;21.30;63.60
43884;DHT22;29544;52.018;5.810;2022-09-12T01:50:30;21.30;63.50
43884;DHT22;29544;52.018;5.810;2022-09-12T01:53:03;21.30;63.60
43884;DHT22;29544;52.018;5.810;2022-09-12T01:55:34;21.20;63.50
43884;DHT22;29544;52.018;5.810;2022-09-12T01:58:14;21.20;63.50
43884;DHT22;29544;52.018;5.810;2022-09-12T02:03:33;21.20;63.50
43884;DHT22;29544;52.018;5.810;2022-09-12T02:09:04;21.20;63.50
43884;DHT22;29544;52.018;5.810;2022-09-12T02:11:33;21.20;63.50
43884;DHT22;29544;52.018;5.810;2022-09-12T02:14:07;21.20;63.40
43884;DHT22;29544;52.018;5.810;2022-09-12T02:16:41;21.20;63.50
43884;DHT22;29544;52.018;5.810;2022-09-12T02:19:13;21.20;63.40
43884;DHT22;29544;52.018;5.810;2022-09-12T02:21:45;21.10;63.40
43884;DHT22;29544;52.018;5.810;2022-09-12T02:24:13;21.10;63.40
43884;DHT22;29544;52.018;5.810;2022-09-12T02:26:43;21.10;63.30
43884;DHT22;29544;52.018;5.810;2022-09-12T02:29:09;21.10;63.30
43884;DHT22;29544;52.018;5.810;2022-09-12T02:31:45;21.10;63.30
43884;DHT22;29544;52.018;5.810;2022-09-12T02:34:44;21.10;63.30
43884;DHT22;29544;52.018;5.810;2022-09-12T02:39:52;21.10;63.30
43884;DHT22;29544;52.018;5.810;2022-09-12T02:42:20;21.00;63.20
43884;DHT22;29544;52.018;5.810;2022-09-12T02:44:45;21.00;63.20
43884;DHT22;29544;52.018;5.810;2022-09-12T02:50:03;21.00;63.10
43884;DHT22;29544;52.018;5.810;2022-09-12T02:52:30;21.00;63.10
43884;DHT22;29544;52.018;5.810;2022-09-12T02:54:57;21.00;63.10
43884;DHT22;29544;52.018;5.810;2022-09-12T02:57:24;21.00;63.10
43884;DHT22;29544;52.018;5.810;2022-09-12T02:59:55;21.10;63.80
43884;DHT22;29544;52.018;5.810;2022-09-12T03:05:26;21.00;63.10
43884;DHT22;29544;52.018;5.810;2022-09-12T03:16:15;20.90;62.90
43884;DHT22;29544;52.018;5.810;2022-09-12T03:19:13;20.90;62.90
43884;DHT22;29544;52.018;5.810;2022-09-12T03:21:54;20.90;62.90
43884;DHT22;29544;52.018;5.810;2022-09-12T03:24:51;20.90;62.90
43884;DHT22;29544;52.018;5.810;2022-09-12T03:27:43;20.90;62.90
43884;DHT22;29544;52.018;5.810;2022-09-12T03:30:10;20.80;62.80
43884;DHT22;29544;52.018;5.810;2022-09-12T03:32:55;20.80;62.80
43884;DHT22;29544;52.018;5.810;2022-09-12T03:35:22;20.80;62.80
43884;DHT22;29544;52.018;5.810;2022-09-12T03:37:49;20.80;62.80
43884;DHT22;29544;52.018;5.810;2022-09-12T03:40:15;20.80;62.80
43884;DHT22;29544;52.018;5.810;2022-09-12T03:42:41;20.80;62.80
43884;DHT22;29544;52.018;5.810;2022-09-12T03:45:08;20.80;62.80
43884;DHT22;29544;52.018;5.810;2022-09-12T03:47:34;20.80;62.80
43884;DHT22;29544;52.018;5.810;2022-09-12T03:50:00;20.80;62.70
43884;DHT22;29544;52.018;5.810;2022-09-12T03:52:25;20.70;62.60
43884;DHT22;29544;52.018;5.810;2022-09-12T03:54:51;20.70;62.60
43884;DHT22;29544;52.018;5.810;2022-09-12T03:57:17;20.70;62.60
43884;DHT22;29544;52.018;5.810;2022-09-12T03:59:42;20.70;62.60
43884;DHT22;29544;52.018;5.810;2022-09-12T04:02:08;20.70;62.60
43884;DHT22;29544;52.018;5.810;2022-09-12T04:04:37;20.70;62.60
43884;DHT22;29544;52.018;5.810;2022-09-12T04:07:03;20.70;63.20
43884;DHT22;29544;52.018;5.810;2022-09-12T04:09:28;20.70;62.60
43884;DHT22;29544;52.018;5.810;2022-09-12T04:11:54;20.70;62.60
43884;DHT22;29544;52.018;5.810;2022-09-12T04:14:19;20.70;62.60
43884;DHT22;29544;52.018;5.810;2022-09-12T04:16:45;20.60;62.50
43884;DHT22;29544;52.018;5.810;2022-09-12T04:19:11;20.60;62.50
43884;DHT22;29544;52.018;5.810;2022-09-12T04:21:36;20.60;62.50
43884;DHT22;29544;52.018;5.810;2022-09-12T04:24:02;20.70;62.60
43884;DHT22;29544;52.018;5.810;2022-09-12T04:26:28;20.60;62.50
43884;DHT22;29544;52.018;5.810;2022-09-12T04:28:54;20.60;62.50
43884;DHT22;29544;52.018;5.810;2022-09-12T04:31:22;20.60;62.50
43884;DHT22;29544;52.018;5.810;2022-09-12T04:33:58;20.60;62.40
43884;DHT22;29544;52.018;5.810;2022-09-12T04:36:26;20.60;62.50
43884;DHT22;29544;52.018;5.810;2022-09-12T04:38:52;20.60;62.50
43884;DHT22;29544;52.018;5.810;2022-09-12T04:41:22;20.60;62.50
43884;DHT22;29544;52.018;5.810;2022-09-12T04:43:52;20.60;62.50
43884;DHT22;29544;52.018;5.810;2022-09-12T04:46:19;20.60;62.40
43884;DHT22;29544;52.018;5.810;2022-09-12T04:48:45;20.60;62.40
43884;DHT22;29544;52.018;5.810;2022-09-12T04:51:12;20.60;62.40
43884;DHT22;29544;52.018;5.810;2022-09-12T04:53:39;20.50;62.30
43884;DHT22;29544;52.018;5.810;2022-09-12T04:56:07;20.50;62.40
43884;DHT22;29544;52.018;5.810;2022-09-12T04:58:33;20.60;62.50
43884;DHT22;29544;52.018;5.810;2022-09-12T05:01:10;20.50;62.40
43884;DHT22;29544;52.018;5.810;2022-09-12T05:03:36;20.50;62.50
43884;DHT22;29544;52.018;5.810;2022-09-12T05:06:07;20.60;62.50
43884;DHT22;29544;52.018;5.810;2022-09-12T05:08:33;20.50;62.50
43884;DHT22;29544;52.018;5.810;2022-09-12T05:11:09;20.50;62.50
43884;DHT22;29544;52.018;5.810;2022-09-12T05:13:36;20.50;62.50
43884;DHT22;29544;52.018;5.810;2022-09-12T05:16:03;20.50;63.10
43884;DHT22;29544;52.018;5.810;2022-09-12T05:18:31;20.50;62.50
43884;DHT22;29544;52.018;5.810;2022-09-12T05:21:02;20.50;62.50
43884;DHT22;29544;52.018;5.810;2022-09-12T05:23:28;20.50;62.50
43884;DHT22;29544;52.018;5.810;2022-09-12T05:25:56;20.60;62.50
43884;DHT22;29544;52.018;5.810;2022-09-12T05:28:23;20.50;62.50
43884;DHT22;29544;52.018;5.810;2022-09-12T05:31:04;20.50;62.50
43884;DHT22;29544;52.018;5.810;2022-09-12T05:33:30;20.50;62.50
43884;DHT22;29544;52.018;5.810;2022-09-12T05:35:56;20.50;62.50
43884;DHT22;29544;52.018;5.810;2022-09-12T05:38:22;20.40;62.50
43884;DHT22;29544;52.018;5.810;2022-09-12T05:40:51;20.40;62.50
43884;DHT22;29544;52.018;5.810;2022-09-12T05:43:16;20.50;62.60
43884;DHT22;29544;52.018;5.810;2022-09-12T05:45:42;20.40;62.50
43884;DHT22;29544;52.018;5.810;2022-09-12T05:48:08;20.40;62.50
43884;DHT22;29544;52.018;5.810;2022-09-12T05:50:33;20.40;62.50
43884;DHT22;29544;52.018;5.810;2022-09-12T05:52:59;20.40;62.50
43884;DHT22;29544;52.018;5.810;2022-09-12T05:55:25;20.40;62.50
43884;DHT22;29544;52.018;5.810;2022-09-12T05:57:50;20.40;62.50
43884;DHT22;29544;52.018;5.810;2022-09-12T06:00:16;20.40;62.50
43884;DHT22;29544;52.018;5.810;2022-09-12T06:02:43;20.40;62.60
43884;DHT22;29544;52.018;5.810;2022-09-12T06:05:09;20.40;62.50
43884;DHT22;29544;52.018;5.810;2022-09-12T06:07:35;20.30;62.50
43884;DHT22;29544;52.018;5.810;2022-09-12T06:10:01;20.40;62.50
43884;DHT22;29544;52.018;5.810;2022-09-12T06:12:30;20.40;62.60
43884;DHT22;29544;52.018;5.810;2022-09-12T06:14:55;20.40;62.60
43884;DHT22;29544;52.018;5.810;2022-09-12T06:17:21;20.40;63.20
43884;DHT22;29544;52.018;5.810;2022-09-12T06:19:47;20.30;62.50
43884;DHT22;29544;52.018;5.810;2022-09-12T06:22:15;20.30;62.50
43884;DHT22;29544;52.018;5.810;2022-09-12T06:24:40;20.30;62.60
43884;DHT22;29544;52.018;5.810;2022-09-12T06:27:06;20.30;62.60
43884;DHT22;29544;52.018;5.810;2022-09-12T06:29:31;20.40;62.60
43884;DHT22;29544;52.018;5.810;2022-09-12T06:31:57;20.30;62.60
43884;DHT22;29544;52.018;5.810;2022-09-12T06:34:23;20.30;62.60
43884;DHT22;29544;52.018;5.810;2022-09-12T06:36:49;20.30;62.60
43884;DHT22;29544;52.018;5.810;2022-09-12T06:39:17;20.30;62.60
43884;DHT22;29544;52.018;5.810;2022-09-12T06:41:43;20.30;62.60
43884;DHT22;29544;52.018;5.810;2022-09-12T06:44:14;20.30;62.70
43884;DHT22;29544;52.018;5.810;2022-09-12T06:46:40;20.30;62.60
43884;DHT22;29544;52.018;5.810;2022-09-12T06:49:06;20.20;62.60
43884;DHT22;29544;52.018;5.810;2022-09-12T06:51:32;20.30;62.70
43884;DHT22;29544;52.018;5.810;2022-09-12T06:53:58;20.30;62.80
43884;DHT22;29544;52.018;5.810;2022-09-12T06:56:25;20.30;62.90
43884;DHT22;29544;52.018;5.810;2022-09-12T06:58:52;20.30;62.90
43884;DHT22;29544;52.018;5.810;2022-09-12T07:01:20;20.30;63.10
43884;DHT22;29544;52.018;5.810;2022-09-12T07:03:50;20.30;63.10
43884;DHT22;29544;52.018;5.810;2022-09-12T07:06:20;20.30;63.30
43884;DHT22;29544;52.018;5.810;2022-09-12T07:08:46;20.30;63.30
43884;DHT22;29544;52.018;5.810;2022-09-12T07:13:41;20.30;63.40
43884;DHT22;29544;52.018;5.810;2022-09-12T07:16:08;20.30;63.50
43884;DHT22;29544;52.018;5.810;2022-09-12T07:18:35;20.30;63.60
43884;DHT22;29544;52.018;5.810;2022-09-12T07:21:03;20.30;64.30
43884;DHT22;29544;52.018;5.810;2022-09-12T07:23:29;20.30;63.80
43884;DHT22;29544;52.018;5.810;2022-09-12T07:25:56;20.30;63.90
43884;DHT22;29544;52.018;5.810;2022-09-12T07:28:23;20.30;63.90
43884;DHT22;29544;52.018;5.810;2022-09-12T07:30:49;20.30;64.00
43884;DHT22;29544;52.018;5.810;2022-09-12T07:33:21;20.30;64.10
43884;DHT22;29544;52.018;5.810;2022-09-12T07:35:47;20.30;64.20
43884;DHT22;29544;52.018;5.810;2022-09-12T07:38:12;20.30;64.20
43884;DHT22;29544;52.018;5.810;2022-09-12T07:40:38;20.30;64.20
43884;DHT22;29544;52.018;5.810;2022-09-12T07:43:04;20.30;64.30
43884;DHT22;29544;52.018;5.810;2022-09-12T07:45:29;20.30;64.30
43884;DHT22;29544;52.018;5.810;2022-09-12T07:47:55;20.30;64.30
43884;DHT22;29544;52.018;5.810;2022-09-12T07:50:21;20.30;64.40
43884;DHT22;29544;52.018;5.810;2022-09-12T07:52:46;20.30;64.40
43884;DHT22;29544;52.018;5.810;2022-09-12T07:55:12;20.30;64.40
43884;DHT22;29544;52.018;5.810;2022-09-12T07:57:37;20.30;64.50
43884;DHT22;29544;52.018;5.810;2022-09-12T08:00:04;20.40;64.50
43884;DHT22;29544;52.018;5.810;2022-09-12T08:02:30;20.30;64.50
43884;DHT22;29544;52.018;5.810;2022-09-12T08:04:55;20.30;64.50
43884;DHT22;29544;52.018;5.810;2022-09-12T08:07:21;20.30;64.50
43884;DHT22;29544;52.018;5.810;2022-09-12T08:09:47;20.30;64.50
43884;DHT22;29544;52.018;5.810;2022-09-12T08:12:14;20.30;64.60
43884;DHT22;29544;52.018;5.810;2022-09-12T08:14:40;20.30;64.70
43884;DHT22;29544;52.018;5.810;2022-09-12T08:17:06;20.30;64.70
43884;DHT22;29544;52.018;5.810;2022-09-12T08:19:31;20.40;64.80
43884;DHT22;29544;52.018;5.810;2022-09-12T08:21:57;20.40;64.80
43884;DHT22;29544;52.018;5.810;2022-09-12T08:24:22;20.40;64.80
43884;DHT22;29544;52.018;5.810;2022-09-12T08:26:49;20.30;64.90
43884;DHT22;29544;52.018;5.810;2022-09-12T08:29:14;20.40;64.90
43884;DHT22;29544;52.018;5.810;2022-09-12T08:31:40;20.40;64.90
43884;DHT22;29544;52.018;5.810;2022-09-12T08:34:07;20.40;64.90
43884;DHT22;29544;52.018;5.810;2022-09-12T08:36:33;20.40;65.00
43884;DHT22;29544;52.018;5.810;2022-09-12T08:39:00;20.40;65.00
43884;DHT22;29544;52.018;5.810;2022-09-12T08:41:45;20.40;65.00
43884;DHT22;29544;52.018;5.810;2022-09-12T08:44:37;20.40;65.00
43884;DHT22;29544;52.018;5.810;2022-09-12T08:52:48;20.40;65.10
43884;DHT22;29544;52.018;5.810;2022-09-12T08:55:31;20.40;65.20
43884;DHT22;29544;52.018;5.810;2022-09-12T08:57:58;20.40;65.90
43884;DHT22;29544;52.018;5.810;2022-09-12T09:00:33;20.40;65.30
43884;DHT22;29544;52.018;5.810;2022-09-12T09:09:00;20.50;65.50
43884;DHT22;29544;52.018;5.810;2022-09-12T09:11:36;20.50;65.50
43884;DHT22;29544;52.018;5.810;2022-09-12T09:14:21;20.50;65.60
43884;DHT22;29544;52.018;5.810;2022-09-12T09:17:14;20.50;65.60
43884;DHT22;29544;52.018;5.810;2022-09-12T09:19:48;20.50;65.60
43884;DHT22;29544;52.018;5.810;2022-09-12T09:24:57;20.60;65.60
43884;DHT22;29544;52.018;5.810;2022-09-12T09:27:31;20.60;65.70
43884;DHT22;29544;52.018;5.810;2022-09-12T09:29:58;20.60;65.70
43884;DHT22;29544;52.018;5.810;2022-09-12T09:32:32;20.60;65.70
43884;DHT22;29544;52.018;5.810;2022-09-12T09:35:15;20.60;65.70
43884;DHT22;29544;52.018;5.810;2022-09-12T09:37:53;20.60;65.70
43884;DHT22;29544;52.018;5.810;2022-09-12T09:41:09;20.70;65.70
43884;DHT22;29544;52.018;5.810;2022-09-12T09:43:18;20.70;65.80
43884;DHT22;29544;52.018;5.810;2022-09-12T09:45:44;20.70;65.80
43884;DHT22;29544;52.018;5.810;2022-09-12T09:48:31;20.70;65.80
43884;DHT22;29544;52.018;5.810;2022-09-12T09:51:03;20.80;66.00
43884;DHT22;29544;52.018;5.810;2022-09-12T09:53:51;20.80;66.10
43884;DHT22;29544;52.018;5.810;2022-09-12T09:56:29;20.80;66.10
43884;DHT22;29544;52.018;5.810;2022-09-12T09:58:55;20.80;66.00
43884;DHT22;29544;52.018;5.810;2022-09-12T10:01:29;20.90;66.10
43884;DHT22;29544;52.018;5.810;2022-09-12T10:03:55;20.90;66.10
43884;DHT22;29544;52.018;5.810;2022-09-12T10:06:30;20.90;66.10
43884;DHT22;29544;52.018;5.810;2022-09-12T10:09:17;20.90;66.00
43884;DHT22;29544;52.018;5.810;2022-09-12T10:11:43;21.00;66.00
43884;DHT22;29544;52.018;5.810;2022-09-12T10:14:30;21.00;66.10
43884;DHT22;29544;52.018;5.810;2022-09-12T10:16:56;21.10;66.10
43884;DHT22;29544;52.018;5.810;2022-09-12T10:19:33;21.10;66.10
43884;DHT22;29544;52.018;5.810;2022-09-12T10:21:58;21.10;66.10
43884;DHT22;29544;52.018;5.810;2022-09-12T10:27:06;21.20;66.10
43884;DHT22;29544;52.018;5.810;2022-09-12T10:29:38;21.20;66.10
43884;DHT22;29544;52.018;5.810;2022-09-12T10:32:07;21.20;66.10
43884;DHT22;29544;52.018;5.810;2022-09-12T10:34:39;21.20;66.00
43884;DHT22;29544;52.018;5.810;2022-09-12T10:37:08;21.30;66.10
43884;DHT22;29544;52.018;5.810;2022-09-12T10:39:36;21.30;66.00
43884;DHT22;29544;52.018;5.810;2022-09-12T10:42:03;21.30;65.90
43884;DHT22;29544;52.018;5.810;2022-09-12T10:44:31;21.40;66.00
43884;DHT22;29544;52.018;5.810;2022-09-12T10:46:59;21.40;66.00
43884;DHT22;29544;52.018;5.810;2022-09-12T10:49:31;21.40;65.90
43884;DHT22;29544;52.018;5.810;2022-09-12T10:52:21;21.50;65.90
43884;DHT22;29544;52.018;5.810;2022-09-12T10:54:48;21.50;65.80
43884;DHT22;29544;52.018;5.810;2022-09-12T11:00:27;21.60;65.60
43884;DHT22;29544;52.018;5.810;2022-09-12T11:03:08;21.60;65.60
43884;DHT22;29544;52.018;5.810;2022-09-12T11:05:51;21.70;65.50
43884;DHT22;29544;52.018;5.810;2022-09-12T11:08:50;21.70;65.50
43884;DHT22;29544;52.018;5.810;2022-09-12T11:11:35;21.70;65.40
43884;DHT22;29544;52.018;5.810;2022-09-12T11:14:12;21.80;65.30
43884;DHT22;29544;52.018;5.810;2022-09-12T11:25:18;21.90;65.20
43884;DHT22;29544;52.018;5.810;2022-09-12T11:30:19;22.00;64.90
43884;DHT22;29544;52.018;5.810;2022-09-12T11:33:05;22.00;64.80
43884;DHT22;29544;52.018;5.810;2022-09-12T11:35:34;22.00;65.20
43884;DHT22;29544;52.018;5.810;2022-09-12T11:38:23;22.10;65.30
43884;DHT22;29544;52.018;5.810;2022-09-12T11:41:00;22.10;65.20
43884;DHT22;29544;52.018;5.810;2022-09-12T11:49:00;22.20;64.80
43884;DHT22;29544;52.018;5.810;2022-09-12T11:51:38;22.20;64.70
43884;DHT22;29544;52.018;5.810;2022-09-12T11:54:08;22.30;64.50
43884;DHT22;29544;52.018;5.810;2022-09-12T11:56:42;22.40;64.40
43884;DHT22;29544;52.018;5.810;2022-09-12T12:01:57;22.40;64.10
43884;DHT22;29544;52.018;5.810;2022-09-12T12:04:31;22.50;64.00
43884;DHT22;29544;52.018;5.810;2022-09-12T12:07:08;22.50;63.90
43884;DHT22;29544;52.018;5.810;2022-09-12T12:09:35;22.50;63.70
43884;DHT22;29544;52.018;5.810;2022-09-12T12:12:16;22.50;63.50
43884;DHT22;29544;52.018;5.810;2022-09-12T12:14:45;22.60;63.40
43884;DHT22;29544;52.018;5.810;2022-09-12T12:17:14;22.60;63.30
43884;DHT22;29544;52.018;5.810;2022-09-12T12:19:40;22.70;63.30
43884;DHT22;29544;52.018;5.810;2022-09-12T12:22:22;22.70;63.20
43884;DHT22;29544;52.018;5.810;2022-09-12T12:25:04;22.70;63.10
43884;DHT22;29544;52.018;5.810;2022-09-12T12:38:01;22.90;62.60
43884;DHT22;29544;52.018;5.810;2022-09-12T12:40:29;22.90;62.50
43884;DHT22;29544;52.018;5.810;2022-09-12T12:48:08;23.00;62.30
43884;DHT22;29544;52.018;5.810;2022-09-12T12:50:34;23.00;62.20
43884;DHT22;29544;52.018;5.810;2022-09-12T12:53:21;23.10;62.10
43884;DHT22;29544;52.018;5.810;2022-09-12T12:55:50;23.10;62.00
43884;DHT22;29544;52.018;5.810;2022-09-12T12:58:36;23.20;61.90
43884;DHT22;29544;52.018;5.810;2022-09-12T13:01:08;23.10;61.80
43884;DHT22;29544;52.018;5.810;2022-09-12T13:03:35;23.20;61.60
43884;DHT22;29544;52.018;5.810;2022-09-12T13:06:05;23.20;61.50
43884;DHT22;29544;52.018;5.810;2022-09-12T13:08:42;23.20;61.50
43884;DHT22;29544;52.018;5.810;2022-09-12T13:11:14;23.30;61.30
43884;DHT22;29544;52.018;5.810;2022-09-12T13:14:06;23.30;61.30
43884;DHT22;29544;52.018;5.810;2022-09-12T13:16:39;23.30;61.10
43884;DHT22;29544;52.018;5.810;2022-09-12T13:19:21;23.40;61.00
43884;DHT22;29544;52.018;5.810;2022-09-12T13:22:02;23.40;60.90
43884;DHT22;29544;52.018;5.810;2022-09-12T13:24:28;23.40;61.00
43884;DHT22;29544;52.018;5.810;2022-09-12T13:26:54;23.50;60.70
43884;DHT22;29544;52.018;5.810;2022-09-12T13:29:24;23.50;60.50
43884;DHT22;29544;52.018;5.810;2022-09-12T13:32:00;23.50;60.50
43884;DHT22;29544;52.018;5.810;2022-09-12T13:34:30;23.50;60.40
43884;DHT22;29544;52.018;5.810;2022-09-12T13:39:49;23.50;60.20
43884;DHT22;29544;52.018;5.810;2022-09-12T13:42:31;23.60;60.10
43884;DHT22;29544;52.018;5.810;2022-09-12T13:45:01;23.60;59.90
43884;DHT22;29544;52.018;5.810;2022-09-12T13:47:34;23.60;59.90
43884;DHT22;29544;52.018;5.810;2022-09-12T13:50:03;23.70;59.90
43884;DHT22;29544;52.018;5.810;2022-09-12T13:52:32;23.70;59.90
43884;DHT22;29544;52.018;5.810;2022-09-12T13:54:59;23.70;59.80
43884;DHT22;29544;52.018;5.810;2022-09-12T13:57:33;23.70;59.60
43884;DHT22;29544;52.018;5.810;2022-09-12T14:02:29;23.80;59.60
43884;DHT22;29544;52.018;5.810;2022-09-12T14:04:55;23.70;59.50
43884;DHT22;29544;52.018;5.810;2022-09-12T14:07:45;23.80;59.40
43884;DHT22;29544;52.018;5.810;2022-09-12T14:10:32;23.80;59.20
43884;DHT22;29544;52.018;5.810;2022-09-12T14:13:18;23.80;59.20
43884;DHT22;29544;52.018;5.810;2022-09-12T14:15:46;23.80;59.30
43884;DHT22;29544;52.018;5.810;2022-09-12T14:18:29;23.80;59.10
43884;DHT22;29544;52.018;5.810;2022-09-12T14:21:04;23.90;59.30
43884;DHT22;29544;52.018;5.810;2022-09-12T14:23:45;23.90;59.00
43884;DHT22;29544;52.018;5.810;2022-09-12T14:26:13;23.90;58.90
43884;DHT22;29544;52.018;5.810;2022-09-12T14:28:41;23.90;59.00
43884;DHT22;29544;52.018;5.810;2022-09-12T14:33:49;23.90;59.00
43884;DHT22;29544;52.018;5.810;2022-09-12T14:36:28;23.90;58.90
43884;DHT22;29544;52.018;5.810;2022-09-12T14:38:58;23.90;58.80
43884;DHT22;29544;52.018;5.810;2022-09-12T14:41:29;24.00;58.80
43884;DHT22;29544;52.018;5.810;2022-09-12T14:44:01;24.00;58.70
43884;DHT22;29544;52.018;5.810;2022-09-12T14:46:34;24.00;58.80
43884;DHT22;29544;52.018;5.810;2022-09-12T14:57:04;24.00;58.40
43884;DHT22;29544;52.018;5.810;2022-09-12T15:07:32;24.10;58.20
43884;DHT22;29544;52.018;5.810;2022-09-12T15:10:04;24.10;58.30
43884;DHT22;29544;52.018;5.810;2022-09-12T15:12:30;24.10;58.20
43884;DHT22;29544;52.018;5.810;2022-09-12T15:15:06;24.00;58.00
43884;DHT22;29544;52.018;5.810;2022-09-12T15:17:37;24.10;58.30
43884;DHT22;29544;52.018;5.810;2022-09-12T15:20:03;24.00;58.10
43884;DHT22;29544;52.018;5.810;2022-09-12T15:22:30;24.00;58.10
43884;DHT22;29544;52.018;5.810;2022-09-12T15:24:56;24.00;57.90
43884;DHT22;29544;52.018;5.810;2022-09-12T15:27:23;24.00;57.90
43884;DHT22;29544;52.018;5.810;2022-09-12T15:29:50;24.00;58.10
43884;DHT22;29544;52.018;5.810;2022-09-12T15:32:22;24.00;58.00
43884;DHT22;29544;52.018;5.810;2022-09-12T15:34:48;24.00;58.00
43884;DHT22;29544;52.018;5.810;2022-09-12T15:37:14;24.00;58.00
43884;DHT22;29544;52.018;5.810;2022-09-12T15:39:40;24.00;57.90
43884;DHT22;29544;52.018;5.810;2022-09-12T15:42:08;24.00;57.90
43884;DHT22;29544;52.018;5.810;2022-09-12T15:44:33;24.00;57.90
43884;DHT22;29544;52.018;5.810;2022-09-12T15:46:59;24.00;57.90
43884;DHT22;29544;52.018;5.810;2022-09-12T15:49:25;24.00;57.90
43884;DHT22;29544;52.018;5.810;2022-09-12T15:51:50;24.00;57.90
43884;DHT22;29544;52.018;5.810;2022-09-12T15:54:16;23.90;57.80
43884;DHT22;29544;52.018;5.810;2022-09-12T15:56:42;23.90;57.90
43884;DHT22;29544;52.018;5.810;2022-09-12T15:59:08;23.90;57.80
43884;DHT22;29544;52.018;5.810;2022-09-12T16:01:34;23.90;57.80
43884;DHT22;29544;52.018;5.810;2022-09-12T16:04:01;23.90;57.80
43884;DHT22;29544;52.018;5.810;2022-09-12T16:06:27;23.90;57.80
43884;DHT22;29544;52.018;5.810;2022-09-12T16:08:55;24.00;57.90
43884;DHT22;29544;52.018;5.810;2022-09-12T16:11:25;23.90;57.80
43884;DHT22;29544;52.018;5.810;2022-09-12T16:13:52;23.90;57.80
43884;DHT22;29544;52.018;5.810;2022-09-12T16:16:18;23.90;57.70
43884;DHT22;29544;52.018;5.810;2022-09-12T16:18:43;23.90;57.80
43884;DHT22;29544;52.018;5.810;2022-09-12T16:21:09;23.80;57.80
43884;DHT22;29544;52.018;5.810;2022-09-12T16:23:35;23.90;57.80
43884;DHT22;29544;52.018;5.810;2022-09-12T16:26:03;23.80;57.80
43884;DHT22;29544;52.018;5.810;2022-09-12T16:28:30;23.80;57.80
43884;DHT22;29544;52.018;5.810;2022-09-12T16:31:02;23.80;57.80
43884;DHT22;29544;52.018;5.810;2022-09-12T16:33:29;23.80;57.80
43884;DHT22;29544;52.018;5.810;2022-09-12T16:36:03;23.80;57.80
43884;DHT22;29544;52.018;5.810;2022-09-12T16:38:30;23.80;57.80
43884;DHT22;29544;52.018;5.810;2022-09-12T16:40:59;23.80;57.80
43884;DHT22;29544;52.018;5.810;2022-09-12T16:43:25;23.80;57.90
43884;DHT22;29544;52.018;5.810;2022-09-12T16:48:30;23.70;57.70
43884;DHT22;29544;52.018;5.810;2022-09-12T16:50:57;23.70;57.70
43884;DHT22;29544;52.018;5.810;2022-09-12T16:53:23;23.70;57.70
43884;DHT22;29544;52.018;5.810;2022-09-12T16:55:49;23.70;57.70
43884;DHT22;29544;52.018;5.810;2022-09-12T16:58:15;23.70;57.70
43884;DHT22;29544;52.018;5.810;2022-09-12T17:00:40;23.70;58.00
43884;DHT22;29544;52.018;5.810;2022-09-12T17:03:06;23.70;57.90
43884;DHT22;29544;52.018;5.810;2022-09-12T17:05:32;23.70;57.80
43884;DHT22;29544;52.018;5.810;2022-09-12T17:07:58;23.70;57.90
43884;DHT22;29544;52.018;5.810;2022-09-12T17:10:23;23.60;57.80
43884;DHT22;29544;52.018;5.810;2022-09-12T17:12:50;23.60;57.90
43884;DHT22;29544;52.018;5.810;2022-09-12T17:15:15;23.60;57.90
43884;DHT22;29544;52.018;5.810;2022-09-12T17:17:41;23.60;57.80
43884;DHT22;29544;52.018;5.810;2022-09-12T17:20:06;23.50;57.90
43884;DHT22;29544;52.018;5.810;2022-09-12T17:22:32;23.60;58.00
43884;DHT22;29544;52.018;5.810;2022-09-12T17:24:59;23.60;58.10
43884;DHT22;29544;52.018;5.810;2022-09-12T17:27:24;23.60;58.10
43884;DHT22;29544;52.018;5.810;2022-09-12T17:29:50;23.60;58.20
43884;DHT22;29544;52.018;5.810;2022-09-12T17:32:15;23.60;58.30
43884;DHT22;29544;52.018;5.810;2022-09-12T17:34:41;23.50;58.40
43884;DHT22;29544;52.018;5.810;2022-09-12T17:37:06;23.50;58.50
43884;DHT22;29544;52.018;5.810;2022-09-12T17:39:32;23.50;58.60
43884;DHT22;29544;52.018;5.810;2022-09-12T17:41:57;23.50;58.70
43884;DHT22;29544;52.018;5.810;2022-09-12T17:44:24;23.50;58.80
43884;DHT22;29544;52.018;5.810;2022-09-12T17:46:50;23.50;58.90
43884;DHT22;29544;52.018;5.810;2022-09-12T17:49:16;23.50;58.90